Airfield :
LOGIN :

Register | Disclaimer

   EN    FR    IT 

 










Legend :    VFR   Marginal VFR   IFR   Intensive IFR   Very Intensive IFR
Visi :
Ceiling :
>= 8 km
>= 3000ft
5 to 8 km
1000 to 3000 ft
1500m to 5 km
500 to 1000 ft
800 to 1500m
200 to 500 ft
< 800m
< 200 ft
Symbols :   Thunderstorms  Fog  Heavy snow  Heavy precipitations  Wind > 20 kt
SIGMETs :     Misc.  Thunderstorms  Icing  Turbulence  Mountain Waves  Volcanic Ashes






- Airport Elevation : 794 ft


LKCV - Čáslav Air Base

CURRENT METAR :
  • 200300Z VRB02KT 8000 -RA BKN010 OVC025 02/01 Q1042 NOSIG

EXPIRED METARs :
  • 200200Z 30005KT 8000 -RA BKN013 OVC035 02/01 Q1042 NOSIG RMK GRN GRN
  • 200100Z 30005KT 8000 -RA BKN014 OVC037 02/01 Q1041 NOSIG

TAF TAF LKCV
Valid from the 20 at 00:00 until the 21 at 00:00 UTC


192300Z 2000/2100 29004KT 8000 SCT015 BKN030
TEMPO 2000/2007 2000 SNRA BR OVC006
PROB40
TEMPO 2000/2007 0600 SN FZFG OVC002
BECMG 2008/2011 9999 SCT025
BECMG 2011/2013 CAVOK



MET'MAP, your aeronautical weather chart ! - Copyright ORBIFLY December 2007 - Disclaimer

ORBIFLY MET'MAP TEAM :

Programming & Development : Alexandra Zaïnal
Concept & original design : Baudouin d'Aumeries
Assistance for programming : Marc-Olivier Méhu
Technical & hardware support : Manuel Goepfert

Contact : metmap@orbifly.com




SOURCES & CREDITS :

   NOAA